createdAt,value
2022-11-12T00:04:12.730Z,12.35
2022-11-12T00:08:33.753Z,12.18
2022-11-12T00:12:55.493Z,12.15
2022-11-12T00:17:17.861Z,12.50
2022-11-12T00:21:38.912Z,10.63
2022-11-12T00:26:00.988Z,11.18
2022-11-12T00:30:22.255Z,10.63
2022-11-12T00:34:44.876Z,10.18
2022-11-12T00:39:06.321Z,10.77
2022-11-12T00:43:27.600Z,10.90
2022-11-12T00:47:49.344Z,10.65
2022-11-12T00:52:12.109Z,11.43
2022-11-12T00:56:35.617Z,10.80
2022-11-12T01:00:57.166Z,11.52
2022-11-12T01:05:18.940Z,11.15
2022-11-12T01:09:41.827Z,11.02
2022-11-12T01:14:05.276Z,11.60
2022-11-12T01:18:26.806Z,10.18
2022-11-12T01:22:48.482Z,10.45
2022-11-12T01:27:11.114Z,11.35
2022-11-12T01:31:34.567Z,10.55
2022-11-12T01:35:59.588Z,10.45
2022-11-12T01:40:20.867Z,9.80
2022-11-12T01:44:46.224Z,9.27
2022-11-12T01:49:12.459Z,9.68
2022-11-12T01:53:37.300Z,9.53
2022-11-12T01:58:05.615Z,9.38
2022-11-12T02:02:28.432Z,9.07
2022-11-12T02:06:52.071Z,10.27
2022-11-12T02:11:16.546Z,9.50
2022-11-12T02:15:39.044Z,8.95
2022-11-12T02:20:02.208Z,9.98
2022-11-12T02:24:36.778Z,9.82
2022-11-12T02:28:57.870Z,8.93
2022-11-12T02:33:19.159Z,9.07
2022-11-12T02:37:40.365Z,8.50
2022-11-12T02:42:02.733Z,8.30
2022-11-12T02:46:23.971Z,9.02
2022-11-12T02:50:45.145Z,8.77
2022-11-12T02:55:07.425Z,7.82
2022-11-12T02:59:29.863Z,8.23
2022-11-12T03:03:51.757Z,8.60
2022-11-12T03:08:13.325Z,8.45
2022-11-12T03:12:34.619Z,8.38
2022-11-12T03:16:57.022Z,8.73
2022-11-12T03:21:18.094Z,8.40
2022-11-12T03:25:39.467Z,7.97
2022-11-12T03:30:00.501Z,7.97
2022-11-12T03:34:23.073Z,7.40
2022-11-12T03:38:44.255Z,7.40
2022-11-12T03:43:05.420Z,7.45
2022-11-12T03:47:26.560Z,7.35
2022-11-12T03:51:49.087Z,7.82
2022-11-12T03:56:10.244Z,7.40
2022-11-12T04:00:31.674Z,7.13
2022-11-12T04:05:10.969Z,7.07
2022-11-12T04:09:33.754Z,6.68
2022-11-12T04:13:54.822Z,6.88
2022-11-12T04:18:33.517Z,7.38
2022-11-12T04:22:55.138Z,7.95
2022-11-12T04:27:19.658Z,7.95
2022-11-12T04:31:41.061Z,7.45
2022-11-12T04:36:02.189Z,7.95
2022-11-12T04:40:54.144Z,7.47
2022-11-12T04:45:17.086Z,7.38
2022-11-12T04:49:38.162Z,7.30
2022-11-12T04:53:59.369Z,8.02
2022-11-12T04:58:21.137Z,7.72
2022-11-12T05:02:43.659Z,7.80
2022-11-12T05:07:04.901Z,6.68
2022-11-12T05:11:25.986Z,7.40
2022-11-12T05:15:47.214Z,10.00
2022-11-12T05:20:11.085Z,7.75
2022-11-12T05:24:41.926Z,8.43
2022-11-12T05:29:08.566Z,6.57
2022-11-12T05:33:30.036Z,6.10
2022-11-12T05:37:52.573Z,6.10
2022-11-12T05:42:14.427Z,5.75
2022-11-12T05:46:35.686Z,6.28
2022-11-12T05:51:12.675Z,6.07
2022-11-12T05:55:37.185Z,6.03
2022-11-12T05:59:58.596Z,5.90
2022-11-12T06:04:19.609Z,5.35
2022-11-12T06:08:40.680Z,5.43
2022-11-12T06:13:03.343Z,6.10
2022-11-12T06:17:24.348Z,6.22
2022-11-12T06:21:45.459Z,6.20
2022-11-12T06:26:06.909Z,6.30
2022-11-12T06:30:29.865Z,6.25
2022-11-12T06:34:53.554Z,5.93
2022-11-12T06:39:14.906Z,6.03
2022-11-12T06:43:37.167Z,6.07
2022-11-12T06:48:00.156Z,5.88
2022-11-12T06:52:21.516Z,6.53
2022-11-12T06:56:42.778Z,5.78
2022-11-12T07:01:12.180Z,7.25
2022-11-12T07:05:37.103Z,5.15
2022-11-12T07:09:58.273Z,7.05
2022-11-12T07:14:19.529Z,6.28
2022-11-12T07:18:41.152Z,5.80
2022-11-12T07:23:03.768Z,6.68
2022-11-12T07:27:24.843Z,6.13
2022-11-12T07:31:46.371Z,5.50
2022-11-12T07:36:09.903Z,4.95
2022-11-12T07:40:32.798Z,5.53
2022-11-12T07:44:53.853Z,5.38
2022-11-12T07:49:15.023Z,6.45
2022-11-12T07:53:36.117Z,5.13
2022-11-12T07:58:01.193Z,5.10
2022-11-12T08:02:22.712Z,4.72
2022-11-12T08:06:43.995Z,5.72
2022-11-12T08:11:05.924Z,6.45
2022-11-12T08:15:28.958Z,5.13
2022-11-12T08:19:55.082Z,6.68
2022-11-12T08:24:16.319Z,9.60
2022-11-12T08:28:38.083Z,5.85
2022-11-12T08:33:03.240Z,9.50
2022-11-12T08:37:24.883Z,6.60
2022-11-12T08:41:46.122Z,5.65
2022-11-12T08:46:07.848Z,6.70
2022-11-12T08:50:30.803Z,6.35
2022-11-12T08:54:52.095Z,6.72
2022-11-12T08:59:13.638Z,7.00
2022-11-12T09:03:35.048Z,6.15
2022-11-12T09:08:00.993Z,6.05
2022-11-12T09:12:22.150Z,6.27
2022-11-12T09:16:43.381Z,6.10
2022-11-12T09:21:06.518Z,7.32
2022-11-12T09:25:29.351Z,6.75
2022-11-12T09:29:50.647Z,7.15
2022-11-12T09:34:11.776Z,6.65
2022-11-12T09:38:33.182Z,7.28
2022-11-12T09:42:55.951Z,6.43
2022-11-12T09:47:20.956Z,7.10
2022-11-12T09:51:46.176Z,6.75
2022-11-12T09:56:11.630Z,7.03
2022-11-12T10:00:34.685Z,6.82
2022-11-12T10:05:24.841Z,8.50
2022-11-12T10:09:58.975Z,6.38
2022-11-12T10:14:41.593Z,7.10
2022-11-12T10:19:25.637Z,8.23
2022-11-12T10:23:49.387Z,7.20
2022-11-12T10:28:20.881Z,8.20
2022-11-12T10:32:43.928Z,8.10
2022-11-12T10:37:08.806Z,8.70
2022-11-12T10:41:32.082Z,8.02
2022-11-12T10:45:53.335Z,8.63
2022-11-12T10:50:22.845Z,9.13
2022-11-12T10:54:49.665Z,8.95
2022-11-12T10:59:18.463Z,8.50
2022-11-12T11:03:48.368Z,9.00
2022-11-12T11:08:11.488Z,10.23
2022-11-12T11:12:35.364Z,9.02
2022-11-12T11:17:00.418Z,8.63
2022-11-12T11:21:41.824Z,9.85
2022-11-12T11:26:16.342Z,8.93
2022-11-12T11:30:49.713Z,9.10
2022-11-12T11:35:19.901Z,9.07
2022-11-12T11:39:52.219Z,8.48
2022-11-12T11:44:23.148Z,7.93
2022-11-12T11:49:46.756Z,9.60
2022-11-12T12:00:10.902Z,8.27
2022-11-12T12:04:45.813Z,8.18
2022-11-12T12:09:20.894Z,9.32
2022-11-12T12:13:54.082Z,9.73
2022-11-12T12:18:31.889Z,9.85
2022-11-12T12:22:58.493Z,10.32
2022-11-12T12:27:23.784Z,9.45
2022-11-12T12:31:52.009Z,9.70
2022-11-12T12:36:18.266Z,9.57
2022-11-12T12:40:45.691Z,8.93
2022-11-12T12:45:25.841Z,9.32
2022-11-12T12:49:48.580Z,8.88
2022-11-12T12:54:42.817Z,8.15
2022-11-12T12:59:20.413Z,8.90
2022-11-12T13:03:58.502Z,9.05
2022-11-12T13:08:24.162Z,9.38
2022-11-12T13:13:07.016Z,9.65
2022-11-12T13:17:52.865Z,9.52
2022-11-12T13:22:49.849Z,10.68
2022-11-12T13:27:11.271Z,10.27
2022-11-12T13:31:34.021Z,10.85
2022-11-12T13:36:24.708Z,11.40
2022-11-12T13:40:47.892Z,11.68
2022-11-12T13:45:13.142Z,11.43
2022-11-12T13:49:36.242Z,11.93
2022-11-12T13:53:59.415Z,11.65
2022-11-12T13:58:26.548Z,11.88
2022-11-12T14:02:51.491Z,11.75
2022-11-12T14:07:31.132Z,11.60
2022-11-12T14:12:16.848Z,12.38
2022-11-12T14:16:51.649Z,12.95
2022-11-12T14:21:17.674Z,11.73
2022-11-12T14:25:48.071Z,12.93
2022-11-12T14:30:16.363Z,13.68
2022-11-12T14:34:37.729Z,13.30
2022-11-12T14:39:00.238Z,13.95
2022-11-12T14:43:34.160Z,12.32
2022-11-12T14:47:58.135Z,12.40
2022-11-12T14:52:22.758Z,11.88
2022-11-12T14:56:47.500Z,12.35
2022-11-12T15:02:03.844Z,11.30
2022-11-12T15:06:12.292Z,12.10
2022-11-12T15:10:36.772Z,12.18
2022-11-12T15:15:09.078Z,13.48
2022-11-12T15:19:30.763Z,14.43
2022-11-12T15:23:59.407Z,14.32
2022-11-12T15:28:23.471Z,15.27
2022-11-12T15:32:45.468Z,14.65
2022-11-12T15:37:09.803Z,14.63
2022-11-12T15:41:35.181Z,15.60
2022-11-12T15:45:57.473Z,13.77
2022-11-12T15:50:21.585Z,14.32
2022-11-12T15:54:42.741Z,14.45
2022-11-12T15:59:05.571Z,14.90
2022-11-12T16:03:27.289Z,15.77
2022-11-12T16:07:48.653Z,15.30
2022-11-12T16:12:11.939Z,16.38
2022-11-12T16:16:34.877Z,13.75
2022-11-12T16:20:56.298Z,16.13
2022-11-12T16:25:17.974Z,14.63
2022-11-12T16:29:39.180Z,12.85
2022-11-12T16:34:01.594Z,14.55
2022-11-12T16:38:25.669Z,13.00
2022-11-12T16:42:46.795Z,13.95
2022-11-12T16:47:08.220Z,14.40
2022-11-12T16:51:30.705Z,13.85
2022-11-12T16:55:52.025Z,14.48
2022-11-12T17:00:14.876Z,14.15
2022-11-12T17:04:36.331Z,18.00
2022-11-12T17:08:58.866Z,14.80
2022-11-12T17:13:19.940Z,15.40
2022-11-12T17:17:41.110Z,14.73
2022-11-12T17:22:02.435Z,15.63
2022-11-12T17:26:24.924Z,16.00
2022-11-12T17:30:45.935Z,19.40
2022-11-12T17:35:08.096Z,14.80
2022-11-12T17:39:29.214Z,15.05
2022-11-12T17:43:54.889Z,15.07
2022-11-12T17:48:16.226Z,14.70
2022-11-12T17:52:37.249Z,15.15
2022-11-12T17:56:58.468Z,14.00
2022-11-12T18:01:23.906Z,13.73
2022-11-12T18:05:45.232Z,14.88
2022-11-12T18:10:06.900Z,14.73
2022-11-12T18:14:27.850Z,15.32
2022-11-12T18:18:50.873Z,19.27
2022-11-12T18:23:12.257Z,16.35
2022-11-12T18:27:33.550Z,15.75
2022-11-12T18:31:54.656Z,17.00
2022-11-12T18:36:19.374Z,15.15
2022-11-12T18:40:40.986Z,14.75
2022-11-12T18:45:01.999Z,15.98
2022-11-12T18:49:23.176Z,13.90
2022-11-12T18:53:46.185Z,16.15
2022-11-12T18:58:07.502Z,15.45
2022-11-12T19:02:28.577Z,14.98
2022-11-12T19:06:49.858Z,16.02
2022-11-12T19:11:15.099Z,14.85
2022-11-12T19:15:36.678Z,15.13
2022-11-12T19:19:57.948Z,13.00
2022-11-12T19:24:19.181Z,14.35
2022-11-12T19:28:42.144Z,13.63
2022-11-12T19:33:03.275Z,14.52
2022-11-12T19:37:33.479Z,13.40
2022-11-12T19:41:55.339Z,13.63
2022-11-12T19:46:18.759Z,13.02
2022-11-12T19:50:39.959Z,13.07
2022-11-12T19:55:01.257Z,12.07
2022-11-12T19:59:22.445Z,13.35
2022-11-12T20:03:45.446Z,12.23
2022-11-12T20:08:06.603Z,12.80
2022-11-12T20:12:29.783Z,14.20
2022-11-12T20:16:51.736Z,12.30
2022-11-12T20:21:15.105Z,12.57
2022-11-12T20:25:36.621Z,12.70
2022-11-12T20:29:57.668Z,13.00
2022-11-12T20:34:18.720Z,14.52
2022-11-12T20:38:42.977Z,12.80
2022-11-12T20:43:04.198Z,13.02
2022-11-12T20:47:29.438Z,12.93
2022-11-12T20:51:51.241Z,12.63
2022-11-12T20:56:15.405Z,12.90
2022-11-12T21:00:37.489Z,14.68
2022-11-12T21:04:58.839Z,13.20
2022-11-12T21:09:19.942Z,13.27
2022-11-12T21:13:43.099Z,13.50
2022-11-12T21:18:04.705Z,14.05
2022-11-12T21:22:26.373Z,13.57
2022-11-12T21:26:49.477Z,13.52
2022-11-12T21:31:15.201Z,13.32
2022-11-12T21:35:36.380Z,15.00
2022-11-12T21:39:57.441Z,14.38
2022-11-12T21:44:18.577Z,13.45
2022-11-12T21:48:41.146Z,13.70
2022-11-12T21:53:02.506Z,21.02
2022-11-12T21:57:23.556Z,15.68
2022-11-12T22:01:44.692Z,16.13
2022-11-12T22:06:08.167Z,19.25
2022-11-12T22:10:29.298Z,16.08
2022-11-12T22:14:50.426Z,17.67
2022-11-12T22:19:12.676Z,17.92
2022-11-12T22:23:35.989Z,17.38
2022-11-12T22:27:57.122Z,17.60
2022-11-12T22:32:18.356Z,19.25
2022-11-12T22:36:39.559Z,18.17
2022-11-12T22:41:07.010Z,18.35
2022-11-12T22:45:28.083Z,19.27
2022-11-12T22:49:49.457Z,18.35
2022-11-12T22:54:13.200Z,18.10
2022-11-12T22:58:37.357Z,19.80
2022-11-12T23:02:59.874Z,19.08
2022-11-12T23:07:21.082Z,18.70
2022-11-12T23:11:42.143Z,18.08
2022-11-12T23:16:07.637Z,16.98
2022-11-12T23:20:28.779Z,16.48
2022-11-12T23:24:49.894Z,17.38
2022-11-12T23:29:11.962Z,16.05
2022-11-12T23:33:34.419Z,19.08
2022-11-12T23:37:55.586Z,16.52
2022-11-12T23:42:16.776Z,17.17
2022-11-12T23:46:37.989Z,15.65
2022-11-12T23:51:06.251Z,16.50
2022-11-12T23:55:29.462Z,16.02
2022-11-12T23:59:50.642Z,15.80
